Time;durP1;ratioP1;P1;durP2;ratioP2;P2;SDS_P1;SDS_P2;PMS_P1;PMS_P2;Temp;Humidity;BMP_temperature;BMP_pressure;BME280_temperature;BME280_humidity;BME280_pressure;Samples;Min_cycle;Max_cycle;Signal;HPM_P1;HPM_P2
2022/08/27 00:01:51;;;;;;;;;;;;;;;17.15;100.00;101685.44;5015800;28;19935;-47
2022/08/27 00:04:17;;;;;;;;;;;;;;;17.12;100.00;101691.19;5016158;28;20172;-45
2022/08/27 00:06:42;;;;;;;;;;;;;;;17.09;100.00;101695.13;5015903;28;19913;-48
2022/08/27 00:09:08;;;;;;;;;;;;;;;17.07;100.00;101707.13;5016091;28;19909;-44
2022/08/27 00:11:33;;;;;;;;;;;;;;;16.98;100.00;101697.44;5015943;28;19913;-42
2022/08/27 00:13:59;;;;;;;;;;;;;;;16.92;100.00;101690.88;5014737;28;19912;-47
2022/08/27 00:16:24;;;;;;;;;;;;;;;16.88;100.00;101690.41;5016323;28;19916;-45
2022/08/27 00:18:49;;;;;;;;;;;;;;;16.82;100.00;101685.72;5019548;28;19916;-44
2022/08/27 00:21:16;;;;;;;;;;;;;;;16.75;100.00;101687.44;5019651;28;20547;-44
2022/08/27 00:23:41;;;;;;;;;;;;;;;16.72;100.00;101688.66;5020263;28;20474;-44
2022/08/27 00:26:06;;;;;;;;;;;;;;;16.71;100.00;101694.25;5019501;28;19909;-43
2022/08/27 00:28:32;;;;;;;;;;;;;;;16.71;100.00;101688.84;5019320;28;19909;-43
2022/08/27 00:30:58;;;;;;;;;;;;;;;16.68;100.00;101683.81;5030129;28;19974;-42
2022/08/27 00:33:23;;;;;;;;;;;;;;;16.65;100.00;101690.41;5039444;28;19932;-45
2022/08/27 00:35:49;;;;;;;;;;;;;;;16.64;100.00;101685.19;5039118;28;19913;-47
2022/08/27 00:38:14;;;;;;;;;;;;;;;16.62;100.00;101682.69;5039746;28;19915;-45
2022/08/27 00:40:40;;;;;;;;;;;;;;;16.61;100.00;101678.28;5039610;28;19909;-45
2022/08/27 00:43:06;;;;;;;;;;;;;;;16.61;100.00;101681.00;5038324;28;20264;-47
2022/08/27 00:45:35;;;;;;;;;;;;;;;16.59;100.00;101680.34;5039070;28;19978;-42
2022/08/27 00:48:01;;;;;;;;;;;;;;;16.58;100.00;101684.03;5038917;28;19916;-46
2022/08/27 00:50:33;;;;;;;;;;;;;;;16.55;100.00;101679.88;5036439;28;19967;-43
2022/08/27 00:53:01;;;;;;;;;;;;;;;16.52;100.00;101680.22;5038072;28;19913;-43
2022/08/27 00:55:29;;;;;;;;;;;;;;;16.51;100.00;101677.69;5038997;28;19982;-46
2022/08/27 00:58:08;;;;;;;;;;;;;;;16.50;100.00;101687.66;5038799;28;20372;-44
2022/08/27 01:00:33;;;;;;;;;;;;;;;16.49;100.00;101685.13;5038319;28;19991;-46
2022/08/27 01:02:58;;;;;;;;;;;;;;;16.46;100.00;101685.50;5038426;28;19999;-45
2022/08/27 01:05:25;;;;;;;;;;;;;;;16.43;100.00;101684.00;5038264;28;19978;-43
2022/08/27 01:07:52;;;;;;;;;;;;;;;16.33;100.00;101689.63;5038808;28;19909;-48
2022/08/27 01:10:22;;;;;;;;;;;;;;;16.21;100.00;101688.38;5038655;28;20140;-44
2022/08/27 01:12:47;;;;;;;;;;;;;;;16.14;100.00;101677.44;5037666;28;20040;-42
2022/08/27 01:15:15;;;;;;;;;;;;;;;16.08;100.00;101680.84;5037802;28;19991;-46
2022/08/27 01:17:41;;;;;;;;;;;;;;;16.02;100.00;101682.41;5037921;28;20359;-47
2022/08/27 01:20:11;;;;;;;;;;;;;;;15.95;100.00;101676.00;5027029;28;19971;-48
2022/08/27 01:22:52;;;;;;;;;;;;;;;15.89;100.00;101674.03;5018290;28;19932;-46
2022/08/27 01:25:18;;;;;;;;;;;;;;;15.85;100.00;101673.56;5018386;28;19932;-46
2022/08/27 01:27:43;;;;;;;;;;;;;;;15.85;100.00;101667.31;5017813;28;19944;-44
2022/08/27 01:30:10;;;;;;;;;;;;;;;15.87;100.00;101675.22;5016688;28;19956;-48
2022/08/27 01:32:36;;;;;;;;;;;;;;;15.81;100.00;101671.38;5018130;28;19909;-43
2022/08/27 01:35:05;;;;;;;;;;;;;;;15.80;100.00;101670.56;5018608;28;19915;-46
2022/08/27 01:37:30;;;;;;;;;;;;;;;15.81;100.00;101674.06;5018239;28;20403;-44
2022/08/27 01:39:57;;;;;;;;;;;;;;;15.79;100.00;101673.41;5018392;28;20003;-45
2022/08/27 01:42:24;;;;;;;;;;;;;;;15.77;100.00;101672.75;5018749;28;20322;-47
2022/08/27 01:44:53;;;;;;;;;;;;;;;15.70;100.00;101667.19;5017060;28;19916;-45
2022/08/27 01:47:19;;;;;;;;;;;;;;;15.73;100.00;101671.38;5016856;28;19916;-44
2022/08/27 01:49:45;;;;;;;;;;;;;;;15.71;100.00;101662.66;5018501;28;19917;-47
2022/08/27 01:52:11;;;;;;;;;;;;;;;15.70;100.00;101660.97;5017361;28;20491;-43
2022/08/27 01:54:36;;;;;;;;;;;;;;;15.67;100.00;101665.69;5018083;28;20276;-43
2022/08/27 01:57:02;;;;;;;;;;;;;;;15.67;100.00;101672.94;5018626;28;19909;-43
2022/08/27 01:59:27;;;;;;;;;;;;;;;15.67;100.00;101665.69;5016700;28;19909;-43
2022/08/27 02:01:53;;;;;;;;;;;;;;;15.69;100.00;101662.00;5017617;28;20096;-45
2022/08/27 02:04:18;;;;;;;;;;;;;;;15.70;100.00;101660.97;5016629;28;20035;-46
2022/08/27 02:06:43;;;;;;;;;;;;;;;15.70;100.00;101660.97;5017480;28;19909;-47
2022/08/27 02:09:08;;;;;;;;;;;;;;;15.67;100.00;101657.59;5017648;28;19919;-46
2022/08/27 02:11:34;;;;;;;;;;;;;;;15.66;100.00;101655.94;5018065;28;20426;-46
2022/08/27 02:13:59;;;;;;;;;;;;;;;15.66;100.00;101652.38;5017537;28;19955;-46
2022/08/27 02:16:24;;;;;;;;;;;;;;;15.65;100.00;101648.88;5016966;28;19920;-46
2022/08/27 02:18:53;;;;;;;;;;;;;;;15.65;100.00;101653.44;5017229;28;20220;-49
2022/08/27 02:21:18;;;;;;;;;;;;;;;15.64;100.00;101654.44;5017262;28;19920;-45
2022/08/27 02:23:44;;;;;;;;;;;;;;;15.63;100.00;101648.22;5016692;28;19909;-44
2022/08/27 02:26:09;;;;;;;;;;;;;;;15.60;100.00;101653.09;5017061;28;19920;-46
2022/08/27 02:28:35;;;;;;;;;;;;;;;15.57;100.00;101656.97;5016734;28;20008;-44
2022/08/27 02:31:00;;;;;;;;;;;;;;;15.53;100.00;101652.97;5016822;28;19967;-44
2022/08/27 02:33:25;;;;;;;;;;;;;;;15.49;100.00;101657.00;5016540;28;20039;-42
2022/08/27 02:35:51;;;;;;;;;;;;;;;15.47;100.00;101653.66;5017059;28;20362;-42
2022/08/27 02:38:16;;;;;;;;;;;;;;;15.44;100.00;101654.84;5017809;28;19916;-45
2022/08/27 02:40:42;;;;;;;;;;;;;;;15.43;100.00;101649.63;5016261;28;19909;-46
2022/08/27 02:43:07;;;;;;;;;;;;;;;15.40;100.00;101650.81;5015568;28;19906;-45
2022/08/27 02:45:33;;;;;;;;;;;;;;;15.39;100.00;101649.13;5015991;28;20028;-47
2022/08/27 02:47:58;;;;;;;;;;;;;;;15.38;100.00;101644.75;5016879;28;20043;-48
2022/08/27 02:50:23;;;;;;;;;;;;;;;15.33;100.00;101652.53;5016429;28;19948;-48
2022/08/27 02:52:49;;;;;;;;;;;;;;;15.29;100.00;101645.78;5017021;28;20374;-48
2022/08/27 02:55:15;;;;;;;;;;;;;;;15.29;100.00;101635.88;5015361;28;20355;-46
2022/08/27 02:57:41;;;;;;;;;;;;;;;15.27;100.00;101643.28;5016034;28;19917;-43
2022/08/27 03:00:07;;;;;;;;;;;;;;;15.29;100.00;101645.78;5015478;28;20164;-45
2022/08/27 03:02:32;;;;;;;;;;;;;;;15.29;100.00;101643.09;5017031;28;20316;-46
2022/08/27 03:04:58;;;;;;;;;;;;;;;15.28;100.00;101644.13;5016409;28;19944;-47
2022/08/27 03:07:23;;;;;;;;;;;;;;;15.30;100.00;101645.63;5016420;28;19967;-48
2022/08/27 03:09:49;;;;;;;;;;;;;;;15.30;100.00;101647.47;5016878;28;20406;-44
2022/08/27 03:12:14;;;;;;;;;;;;;;;15.29;100.00;101643.97;5016484;28;19951;-45
2022/08/27 03:14:40;;;;;;;;;;;;;;;15.30;100.00;101639.41;5015485;28;19940;-47
2022/08/27 03:19:49;;;;;;;;;;;;;;;15.34;100.00;101650.66;5016013;28;20110;-43
2022/08/27 03:22:14;;;;;;;;;;;;;;;15.38;100.00;101647.47;5016065;28;20080;-47
2022/08/27 03:24:39;;;;;;;;;;;;;;;15.44;100.00;101651.28;5016456;28;20268;-47
2022/08/27 03:27:05;;;;;;;;;;;;;;;15.47;100.00;101651.78;5016493;28;20003;-43
2022/08/27 03:29:33;;;;;;;;;;;;;;;15.51;100.00;101654.97;5015372;28;19983;-46
2022/08/27 03:31:58;;;;;;;;;;;;;;;15.51;100.00;101651.44;5015065;28;20470;-44
2022/08/27 03:34:23;;;;;;;;;;;;;;;15.51;100.00;101651.44;5015773;28;19944;-46
2022/08/27 03:36:50;;;;;;;;;;;;;;;15.47;100.00;101659.03;5015755;28;20091;-46
2022/08/27 03:39:15;;;;;;;;;;;;;;;15.46;100.00;101646.56;5016582;28;19909;-45
2022/08/27 03:41:40;;;;;;;;;;;;;;;15.47;100.00;101649.09;5016551;28;19916;-46
2022/08/27 03:44:05;;;;;;;;;;;;;;;15.50;100.00;101650.63;5015380;28;19955;-45
2022/08/27 03:46:30;;;;;;;;;;;;;;;15.50;100.00;101657.84;5015927;28;20305;-44
2022/08/27 03:48:56;;;;;;;;;;;;;;;15.49;100.00;101662.38;5015964;28;20132;-46
2022/08/27 03:51:21;;;;;;;;;;;;;;;15.45;100.00;101661.91;5016022;28;20355;-48
2022/08/27 03:53:47;;;;;;;;;;;;;;;15.43;100.00;101663.09;5020676;28;19935;-43
2022/08/27 03:56:13;;;;;;;;;;;;;;;15.43;100.00;101655.03;5020086;28;19955;-47
2022/08/27 03:58:38;;;;;;;;;;;;;;;15.44;100.00;101654.84;5020052;28;19975;-46
2022/08/27 04:01:04;;;;;;;;;;;;;;;15.42;100.00;101651.47;5019352;28;19921;-45
2022/08/27 04:03:29;;;;;;;;;;;;;;;15.40;100.00;101658.88;5051927;28;19916;-47
2022/08/27 04:05:55;;;;;;;;;;;;;;;15.39;100.00;101650.97;5019833;28;19921;-47
2022/08/27 04:08:21;;;;;;;;;;;;;;;15.38;100.00;101652.84;5019557;28;19971;-43
2022/08/27 04:10:47;;;;;;;;;;;;;;;15.36;100.00;101654.88;5051034;28;19939;-43
2022/08/27 04:13:12;;;;;;;;;;;;;;;15.32;100.00;101653.53;5019233;28;19991;-44
2022/08/27 04:15:43;;;;;;;;;;;;;;;15.32;100.00;101652.69;5018126;28;19913;-44
2022/08/27 04:18:08;;;;;;;;;;;;;;;15.27;100.00;101653.19;5067810;28;19924;-43
2022/08/27 04:20:33;;;;;;;;;;;;;;;15.24;100.00;101643.63;5038869;28;19908;-48
2022/08/27 04:22:58;;;;;;;;;;;;;;;15.21;100.00;101645.84;5039653;28;20019;-46
2022/08/27 04:25:24;;;;;;;;;;;;;;;15.09;100.00;101643.50;5038961;28;19916;-47
2022/08/27 04:27:49;;;;;;;;;;;;;;;15.09;100.00;101646.19;5038030;28;20434;-43
2022/08/27 04:30:14;;;;;;;;;;;;;;;15.05;100.00;101639.47;5039474;28;19912;-44
2022/08/27 04:32:39;;;;;;;;;;;;;;;15.06;100.00;101653.75;5025437;28;20395;-47
2022/08/27 04:35:05;;;;;;;;;;;;;;;15.06;100.00;101656.44;5019211;28;20423;-44
2022/08/27 04:37:31;;;;;;;;;;;;;;;15.10;100.00;101652.41;5019666;28;20380;-47
2022/08/27 04:39:57;;;;;;;;;;;;;;;15.14;100.00;101660.97;5020153;28;19909;-45
2022/08/27 04:42:22;;;;;;;;;;;;;;;15.17;100.00;101655.25;5018337;28;20251;-48
2022/08/27 04:44:47;;;;;;;;;;;;;;;15.20;100.00;101655.72;5031396;28;19920;-46
2022/08/27 04:47:13;;;;;;;;;;;;;;;15.27;100.00;101659.44;5037496;28;20027;-46
2022/08/27 04:49:38;;;;;;;;;;;;;;;15.35;100.00;101663.13;5036203;28;19924;-48
2022/08/27 04:52:04;;;;;;;;;;;;;;;15.41;100.00;101662.41;5038134;28;19909;-48
2022/08/27 04:54:29;;;;;;;;;;;;;;;15.45;100.00;101661.06;5031712;28;19912;-48
2022/08/27 04:56:54;;;;;;;;;;;;;;;15.46;100.00;101655.50;5038891;28;19996;-46
2022/08/27 04:59:19;;;;;;;;;;;;;;;15.51;100.00;101656.81;5038020;28;19909;-44
2022/08/27 05:01:45;;;;;;;;;;;;;;;15.54;100.00;101654.63;5038412;28;19909;-43
2022/08/27 05:04:13;;;;;;;;;;;;;;;15.57;100.00;101662.34;5038342;28;20370;-44
2022/08/27 05:06:39;;;;;;;;;;;;;;;15.62;100.00;101664.53;5037749;28;19916;-45
2022/08/27 05:09:04;;;;;;;;;;;;;;;15.67;100.00;101663.00;5039044;28;19904;-44
2022/08/27 05:11:33;;;;;;;;;;;;;;;15.72;100.00;101672.41;5038720;28;20024;-47
2022/08/27 05:14:00;;;;;;;;;;;;;;;15.78;100.00;101669.03;5038386;28;19912;-47
2022/08/27 05:16:25;;;;;;;;;;;;;;;15.82;100.00;101667.69;5037842;28;19912;-47
2022/08/27 05:18:51;;;;;;;;;;;;;;;15.83;100.00;101670.22;5019556;28;20429;-44
2022/08/27 05:21:21;;;;;;;;;;;;;;;15.83;100.00;101663.97;5030484;28;19913;-44
2022/08/27 05:23:46;;;;;;;;;;;;;;;15.81;100.00;101666.81;5032660;28;20582;-46
2022/08/27 05:26:11;;;;;;;;;;;;;;;15.79;100.00;101674.25;5048621;28;19928;-49
2022/08/27 05:28:37;;;;;;;;;;;;;;;15.81;100.00;101666.81;5016723;28;19916;-44
2022/08/27 05:31:04;;;;;;;;;;;;;;;15.85;100.00;101670.00;5017249;28;19923;-44
2022/08/27 05:33:29;;;;;;;;;;;;;;;15.87;100.00;101669.84;5018420;28;19971;-48
2022/08/27 05:35:56;;;;;;;;;;;;;;;15.91;100.00;101672.00;5016521;28;19921;-47
2022/08/27 05:38:23;;;;;;;;;;;;;;;15.97;100.00;101670.44;5017528;28;19971;-46
2022/08/27 05:40:49;;;;;;;;;;;;;;;16.02;100.00;101674.31;5018317;28;19905;-44
2022/08/27 05:43:15;;;;;;;;;;;;;;;16.11;100.00;101679.66;5017098;28;20274;-46
2022/08/27 05:45:45;;;;;;;;;;;;;;;16.17;100.00;101684.31;5021456;28;19912;-46
2022/08/27 05:48:11;;;;;;;;;;;;;;;16.21;100.00;101682.97;5017831;28;19905;-48
2022/08/27 05:50:37;;;;;;;;;;;;;;;16.22;100.00;101684.63;5017864;28;20379;-44
2022/08/27 05:53:02;;;;;;;;;;;;;;;16.23;100.00;101678.25;5019056;28;20125;-47
2022/08/27 05:55:27;;;;;;;;;;;;;;;16.26;100.00;101672.50;5017885;28;20395;-46
2022/08/27 05:57:52;;;;;;;;;;;;;;;16.32;100.00;101681.72;5017371;28;19919;-45
2022/08/27 06:03:01;;;;;;;;;;;;;;;16.47;100.00;101679.91;5017863;28;20200;-47
2022/08/27 06:05:27;;;;;;;;;;;;;;;16.55;100.00;101679.88;5017561;28;20132;-48
2022/08/27 06:07:52;;;;;;;;;;;;;;;16.58;100.00;101684.03;5017685;28;19990;-45
2022/08/27 06:10:17;;;;;;;;;;;;;;;16.60;100.00;101684.72;5017777;28;19975;-47
2022/08/27 06:12:42;;;;;;;;;;;;;;;16.60;100.00;101690.13;5016272;28;19909;-48
2022/08/27 06:15:07;;;;;;;;;;;;;;;16.62;100.00;101690.78;5016901;28;20398;-44
2022/08/27 06:17:33;;;;;;;;;;;;;;;16.69;100.00;101693.59;5036741;28;19988;-44
2022/08/27 06:19:58;;;;;;;;;;;;;;;16.75;100.00;101685.63;5027509;28;19905;-43
2022/08/27 06:22:23;;;;;;;;;;;;;;;16.81;100.00;101694.00;5015543;28;19912;-42
2022/08/27 06:24:48;;;;;;;;;;;;;;;16.82;100.00;101693.81;5017651;28;19905;-43
2022/08/27 06:27:15;;;;;;;;;;;;;;;16.86;100.00;101697.84;5016785;28;19916;-43
2022/08/27 06:29:41;;;;;;;;;;;;;;;16.88;100.00;101697.69;5016903;28;19916;-46
2022/08/27 06:32:08;;;;;;;;;;;;;;;16.96;100.00;101697.59;5016684;28;19968;-43
2022/08/27 06:34:33;;;;;;;;;;;;;;;16.95;100.00;101685.13;5016434;28;19992;-43
2022/08/27 06:36:59;;;;;;;;;;;;;;;16.99;100.00;101691.84;5017225;28;20082;-42
2022/08/27 06:39:24;;;;;;;;;;;;;;;17.03;100.00;101687.75;5036820;28;20140;-44
2022/08/27 06:41:49;;;;;;;;;;;;;;;17.09;100.00;101691.56;5037303;28;19912;-43
2022/08/27 06:44:15;;;;;;;;;;;;;;;17.15;100.00;101690.84;5034867;28;20540;-44
2022/08/27 06:46:41;;;;;;;;;;;;;;;17.25;100.00;101696.81;5035775;28;20523;-43
2022/08/27 06:49:06;;;;;;;;;;;;;;;17.31;100.00;101690.69;5036891;28;20276;-45
2022/08/27 06:51:33;;;;;;;;;;;;;;;17.40;100.00;101696.84;5039912;28;19913;-46
2022/08/27 06:53:59;;;;;;;;;;;;;;;17.41;100.00;101698.50;5030077;28;19921;-43
2022/08/27 06:56:25;;;;;;;;;;;;;;;17.40;100.00;101699.53;5039168;28;20181;-43
2022/08/27 06:58:52;;;;;;;;;;;;;;;17.40;100.00;101702.22;5040561;28;19925;-46
2022/08/27 07:01:19;;;;;;;;;;;;;;;17.36;100.00;101695.50;5032219;28;19909;-46
2022/08/27 07:03:44;;;;;;;;;;;;;;;17.29;100.00;101695.44;5032689;28;20740;-45
2022/08/27 07:06:10;;;;;;;;;;;;;;;17.24;100.00;101697.00;5019949;28;19912;-47
2022/08/27 07:08:36;;;;;;;;;;;;;;;17.17;100.00;101686.09;5034635;28;19931;-43
2022/08/27 07:11:01;;;;;;;;;;;;;;;17.13;100.00;101682.94;5032784;28;19916;-44
2022/08/27 07:13:28;;;;;;;;;;;;;;;17.15;100.00;101690.84;5030837;28;19913;-44
2022/08/27 07:15:54;;;;;;;;;;;;;;;17.15;100.00;101694.38;5017022;28;20057;-48
2022/08/27 07:18:20;;;;;;;;;;;;;;;17.12;100.00;101702.88;5016758;28;19999;-44
2022/08/27 07:20:46;;;;;;;;;;;;;;;17.11;100.00;101703.03;5018348;28;19921;-46
2022/08/27 07:23:11;;;;;;;;;;;;;;;17.14;100.00;101702.66;5031418;28;20194;-49
2022/08/27 07:25:39;;;;;;;;;;;;;;;17.17;100.00;101705.00;5034717;28;20393;-43
2022/08/27 07:28:04;;;;;;;;;;;;;;;17.21;100.00;101705.47;5035181;28;20356;-43
2022/08/27 07:30:30;;;;;;;;;;;;;;;17.33;100.00;101707.53;5026215;28;20019;-45
2022/08/27 07:32:55;;;;;;;;;;;;;;;17.47;100.00;101713.97;5016647;28;19994;-47
2022/08/27 07:35:20;;;;;;;;;;;;;;;17.56;100.00;101709.31;5017152;28;20323;-44
2022/08/27 07:37:48;;;;;;;;;;;;;;;17.75;100.00;101718.69;5028422;28;19999;-45
2022/08/27 07:40:14;;;;;;;;;;;;;;;17.99;100.00;101717.63;5033752;28;20351;-43
2022/08/27 07:45:24;;;;;;;;;;;;;;;18.49;100.00;101716.94;5035005;28;19982;-47
2022/08/27 07:47:50;;;;;;;;;;;;;;;18.74;100.00;101703.84;5027710;28;19913;-45
2022/08/27 07:50:15;;;;;;;;;;;;;;;18.92;100.00;101709.63;5021701;28;19935;-47
2022/08/27 07:52:42;;;;;;;;;;;;;;;19.10;100.00;101708.34;5015903;28;20409;-46
2022/08/27 07:55:08;;;;;;;;;;;;;;;19.27;100.00;101717.00;5016182;28;20407;-43
2022/08/27 07:57:33;;;;;;;;;;;;;;;19.38;97.35;101714.59;5014128;28;19916;-43
2022/08/27 07:59:58;;;;;;;;;;;;;;;19.52;98.61;101714.69;5047136;28;20232;-49
2022/08/27 08:02:24;;;;;;;;;;;;;;;19.70;97.70;101717.66;5014975;28;19924;-47
2022/08/27 08:04:50;;;;;;;;;;;;;;;19.91;98.47;101714.06;5015059;28;20334;-45
2022/08/27 08:07:15;;;;;;;;;;;;;;;20.08;93.66;101713.72;5014651;28;20375;-47
2022/08/27 08:09:40;;;;;;;;;;;;;;;20.21;85.24;101716.47;5015838;28;20046;-45
2022/08/27 08:12:06;;;;;;;;;;;;;;;20.23;84.06;101719.81;5014887;28;19909;-47
2022/08/27 08:14:32;;;;;;;;;;;;;;;20.36;87.02;101723.59;5016272;28;20015;-49
2022/08/27 08:17:01;;;;;;;;;;;;;;;20.47;85.61;101718.41;5015503;28;19915;-44
2022/08/27 08:19:26;;;;;;;;;;;;;;;20.56;85.25;101716.34;5015359;28;19966;-46
2022/08/27 08:21:52;;;;;;;;;;;;;;;20.64;81.44;101721.63;5016074;28;19909;-46
2022/08/27 08:24:18;;;;;;;;;;;;;;;20.80;85.82;101717.66;5014610;28;19909;-48
2022/08/27 08:26:43;;;;;;;;;;;;;;;20.99;84.42;101717.88;5015024;28;19909;-48
2022/08/27 08:29:09;;;;;;;;;;;;;;;21.06;81.16;101721.41;5016014;28;19909;-48
2022/08/27 08:31:34;;;;;;;;;;;;;;;21.15;82.95;101722.06;5019111;28;20421;-46
2022/08/27 08:33:59;;;;;;;;;;;;;;;21.02;79.18;101723.72;5035291;28;19917;-43
2022/08/27 08:36:24;;;;;;;;;;;;;;;20.90;81.31;101721.84;5035033;28;19909;-44
2022/08/27 08:38:50;;;;;;;;;;;;;;;20.88;76.85;101730.19;5038705;28;20258;-43
2022/08/27 08:41:27;;;;;;;;;;;;;;;21.05;79.97;101731.44;5038624;28;20469;-45
2022/08/27 08:43:53;;;;;;;;;;;;;;;21.13;79.40;101732.28;5038084;28;20414;-48
2022/08/27 08:46:36;;;;;;;;;;;;;;;21.18;78.17;101732.47;5037931;28;19958;-46
2022/08/27 08:49:09;;;;;;;;;;;;;;;21.27;79.02;101733.94;5039180;28;19916;-44
2022/08/27 08:51:39;;;;;;;;;;;;;;;21.36;77.15;101740.00;5022356;28;19917;-43
2022/08/27 08:54:08;;;;;;;;;;;;;;;21.35;76.17;101732.88;5036294;28;20323;-47
2022/08/27 08:56:44;;;;;;;;;;;;;;;21.11;77.94;101729.75;5023091;28;19974;-42
2022/08/27 08:59:29;;;;;;;;;;;;;;;20.99;74.87;101739.59;5035602;28;20398;-48
2022/08/27 09:01:55;;;;;;;;;;;;;;;20.95;78.80;101735.63;5038347;28;19913;-47
2022/08/27 09:04:22;;;;;;;;;;;;;;;21.16;79.81;101740.00;5037105;28;19927;-48
2022/08/27 09:06:59;;;;;;;;;;;;;;;21.32;77.41;101731.44;5039136;28;19964;-48
2022/08/27 09:09:30;;;;;;;;;;;;;;;21.30;74.05;101738.97;5038860;28;20376;-47
2022/08/27 09:12:02;;;;;;;;;;;;;;;21.19;75.97;101737.69;5037446;28;19966;-50
2022/08/27 09:14:27;;;;;;;;;;;;;;;21.15;76.57;101736.47;5038484;28;19909;-48
2022/08/27 09:16:52;;;;;;;;;;;;;;;21.13;79.28;101738.56;5036053;28;19939;-45
2022/08/27 09:19:20;;;;;;;;;;;;;;;21.03;79.07;101741.69;5038089;28;20189;-47
2022/08/27 09:21:53;;;;;;;;;;;;;;;20.90;79.37;101743.56;5038674;28;20228;-47
2022/08/27 09:24:24;;;;;;;;;;;;;;;21.00;78.91;101742.09;5038293;28;19909;-48
2022/08/27 09:26:50;;;;;;;;;;;;;;;21.19;79.82;101742.31;5037358;28;20093;-44
2022/08/27 09:29:16;;;;;;;;;;;;;;;21.42;78.86;101752.75;5037674;28;20563;-45
2022/08/27 09:31:58;;;;;;;;;;;;;;;21.51;74.82;101753.38;5036837;28;20067;-46
2022/08/27 09:34:26;;;;;;;;;;;;;;;21.47;73.70;101747.53;5035876;28;20152;-45
2022/08/27 09:36:51;;;;;;;;;;;;;;;21.63;76.89;101748.13;5038163;28;20236;-44
2022/08/27 09:39:16;;;;;;;;;;;;;;;21.91;75.08;101743.25;5038818;28;19991;-47
2022/08/27 09:41:44;;;;;;;;;;;;;;;22.23;75.97;101742.47;5035242;28;19909;-46
2022/08/27 09:44:11;;;;;;;;;;;;;;;22.54;68.49;101742.53;5036021;28;19909;-45
2022/08/27 09:46:36;;;;;;;;;;;;;;;22.62;68.36;101741.44;5036115;28;19951;-44
2022/08/27 09:49:12;;;;;;;;;;;;;;;22.80;68.09;101731.69;5035889;28;19940;-48
2022/08/27 09:51:39;;;;;;;;;;;;;;;22.89;71.20;101731.16;5035433;28;19913;-45
2022/08/27 09:54:06;;;;;;;;;;;;;;;22.81;70.49;101736.91;5036681;28;20311;-46
2022/08/27 09:56:34;;;;;;;;;;;;;;;22.72;71.24;101739.06;5036681;28;19909;-46
2022/08/27 09:59:01;;;;;;;;;;;;;;;22.62;71.26;101735.16;5038609;28;20398;-45
2022/08/27 10:01:29;;;;;;;;;;;;;;;22.58;68.55;101740.22;5035952;28;19919;-45
2022/08/27 10:04:14;;;;;;;;;;;;;;;22.46;70.97;101740.06;5038425;28;19917;-45
2022/08/27 10:06:47;;;;;;;;;;;;;;;22.48;73.34;101745.31;5037020;28;20377;-46
2022/08/27 10:09:16;;;;;;;;;;;;;;;22.49;70.30;101746.97;5028397;28;19915;-44
2022/08/27 10:12:01;;;;;;;;;;;;;;;22.34;69.28;101747.28;5015902;28;20248;-44
2022/08/27 10:14:35;;;;;;;;;;;;;;;22.16;71.45;101742.50;5017021;28;20363;-43
2022/08/27 10:17:10;;;;;;;;;;;;;;;22.08;69.51;101740.03;5017398;28;19925;-44
2022/08/27 10:19:39;;;;;;;;;;;;;;;22.02;70.00;101740.91;5016024;28;20114;-43
2022/08/27 10:22:19;;;;;;;;;;;;;;;22.02;68.79;101735.47;5016601;28;19909;-45
2022/08/27 10:24:54;;;;;;;;;;;;;;;21.93;71.64;101734.88;5017740;28;19912;-46
2022/08/27 10:27:19;;;;;;;;;;;;;;;21.83;69.53;101738.03;5016086;28;19909;-44
2022/08/27 10:29:51;;;;;;;;;;;;;;;21.70;70.60;101727.19;5017107;28;20359;-44
2022/08/27 10:32:26;;;;;;;;;;;;;;;21.93;70.50;101732.16;5016042;28;19936;-42
2022/08/27 10:35:06;;;;;;;;;;;;;;;22.29;70.62;101731.59;5015448;28;20052;-46
2022/08/27 10:37:40;;;;;;;;;;;;;;;22.37;65.94;101726.94;5016976;28;20287;-44
2022/08/27 10:40:12;;;;;;;;;;;;;;;22.44;67.94;101735.91;5016377;28;19908;-43
2022/08/27 10:42:42;;;;;;;;;;;;;;;22.45;68.28;101732.94;5017788;28;20505;-44
2022/08/27 10:45:15;;;;;;;;;;;;;;;22.59;67.39;101727.41;5021502;28;19960;-43
2022/08/27 10:47:59;;;;;;;;;;;;;;;22.78;65.17;101728.38;5028383;28;19928;-45
2022/08/27 10:50:24;;;;;;;;;;;;;;;22.81;66.94;101736.06;5020080;28;20051;-44
2022/08/27 10:52:57;;;;;;;;;;;;;;;22.70;65.96;101735.72;5015737;28;20583;-47
2022/08/27 10:55:25;;;;;;;;;;;;;;;22.71;66.34;101726.50;5016240;28;19901;-45
2022/08/27 10:58:00;;;;;;;;;;;;;;;22.59;65.31;101721.97;5016031;28;19909;-45
2022/08/27 11:00:30;;;;;;;;;;;;;;;22.62;66.77;101721.53;5016211;28;19952;-44
2022/08/27 11:03:00;;;;;;;;;;;;;;;22.70;68.28;101722.09;5019256;28;19924;-46
2022/08/27 11:05:31;;;;;;;;;;;;;;;22.67;67.59;101728.00;5031962;28;19920;-44
2022/08/27 11:08:04;;;;;;;;;;;;;;;22.76;66.78;101725.84;5035593;28;20339;-45
2022/08/27 11:10:31;;;;;;;;;;;;;;;22.85;62.92;101729.97;5034614;28;19921;-49
2022/08/27 11:12:58;;;;;;;;;;;;;;;22.90;65.77;101721.97;5035375;28;19998;-42
2022/08/27 11:15:28;;;;;;;;;;;;;;;23.13;65.59;101717.81;5035713;28;19912;-44
2022/08/27 11:17:57;;;;;;;;;;;;;;;23.39;66.76;101719.47;5034853;28;19995;-43
2022/08/27 11:20:30;;;;;;;;;;;;;;;23.61;60.45;101719.03;5031206;28;19905;-45
2022/08/27 11:23:08;;;;;;;;;;;;;;;23.46;62.48;101722.94;5035658;28;20475;-47
2022/08/27 11:25:41;;;;;;;;;;;;;;;23.33;60.55;101720.34;5036205;28;19924;-46
2022/08/27 11:28:07;;;;;;;;;;;;;;;23.27;59.72;101716.63;5034531;28;20211;-44
2022/08/27 11:30:40;;;;;;;;;;;;;;;23.03;60.63;101715.56;5034812;28;20525;-44
2022/08/27 11:33:14;;;;;;;;;;;;;;;23.13;61.50;101712.34;5034728;28;19931;-46
2022/08/27 11:35:45;;;;;;;;;;;;;;;23.45;61.33;101714.97;5035045;28;20003;-46
2022/08/27 11:38:28;;;;;;;;;;;;;;;23.63;60.74;101715.00;5035506;28;19920;-43
2022/08/27 11:41:11;;;;;;;;;;;;;;;23.80;63.05;101715.22;5035962;28;20645;-43
2022/08/27 11:43:37;;;;;;;;;;;;;;;24.27;59.83;101719.25;5015468;28;20094;-45
2022/08/27 11:46:04;;;;;;;;;;;;;;;24.49;62.09;101714.13;5015409;28;20533;-49
2022/08/27 11:48:32;;;;;;;;;;;;;;;24.57;57.54;101717.38;5015893;28;19996;-44
2022/08/27 11:51:06;;;;;;;;;;;;;;;24.45;59.40;101711.00;5014778;28;19913;-44
2022/08/27 11:53:32;;;;;;;;;;;;;;;24.43;61.55;101710.41;5031626;28;19917;-49
2022/08/27 11:56:08;;;;;;;;;;;;;;;24.60;61.83;101707.06;5035416;28;19913;-49
2022/08/27 11:58:34;;;;;;;;;;;;;;;24.64;55.76;101709.06;5036061;28;19921;-45
2022/08/27 12:01:00;;;;;;;;;;;;;;;24.25;58.57;101713.19;5035191;28;19996;-44
2022/08/27 12:03:27;;;;;;;;;;;;;;;23.77;54.59;101706.66;5031705;28;19938;-44
2022/08/27 12:05:52;;;;;;;;;;;;;;;23.65;59.05;101709.31;5032656;28;20465;-45
2022/08/27 12:08:20;;;;;;;;;;;;;;;23.70;60.98;101709.47;5035711;28;19955;-44
2022/08/27 12:10:46;;;;;;;;;;;;;;;23.78;58.48;101694.69;5035350;28;19912;-47
2022/08/27 12:13:30;;;;;;;;;;;;;;;23.80;58.96;101706.22;5037127;28;19909;-48
2022/08/27 12:16:05;;;;;;;;;;;;;;;24.00;61.10;101700.53;5038875;28;19915;-47
2022/08/27 12:18:38;;;;;;;;;;;;;;;24.29;55.35;101704.34;5040378;28;19958;-46
2022/08/27 12:21:13;;;;;;;;;;;;;;;24.43;58.57;101710.41;5039564;28;19958;-46
2022/08/27 12:23:54;;;;;;;;;;;;;;;24.62;53.16;101710.38;5038399;28;20961;-43
2022/08/27 12:26:25;;;;;;;;;;;;;;;24.66;56.52;101703.38;5038856;28;20386;-44
2022/08/27 12:29:10;;;;;;;;;;;;;;;24.76;57.04;101693.56;5039786;28;20298;-46
2022/08/27 12:31:39;;;;;;;;;;;;;;;24.72;56.61;101703.28;5038137;28;20406;-48
2022/08/27 12:34:04;;;;;;;;;;;;;;;24.71;54.98;101701.63;5037234;28;20015;-45
2022/08/27 12:36:31;;;;;;;;;;;;;;;24.54;54.51;101704.22;5039509;28;20019;-49
2022/08/27 12:38:57;;;;;;;;;;;;;;;24.40;56.01;101713.63;5039860;28;19915;-47
2022/08/27 12:41:28;;;;;;;;;;;;;;;24.35;55.83;101702.56;5038054;28;19915;-47